createdAt,value
2023-03-27T00:00:16.793Z,99748.31
2023-03-27T00:02:49.097Z,99750.75
2023-03-27T00:05:20.469Z,99752.56
2023-03-27T00:07:51.144Z,99750.66
2023-03-27T00:10:19.102Z,99757.44
2023-03-27T00:12:47.260Z,99756.34
2023-03-27T00:15:17.363Z,99741.53
2023-03-27T00:17:47.046Z,99752.19
2023-03-27T00:20:23.067Z,99753.03
2023-03-27T00:22:56.448Z,99744.19
2023-03-27T00:25:29.173Z,99757.25
2023-03-27T00:28:04.493Z,99763.19
2023-03-27T00:30:33.852Z,99756.88
2023-03-27T00:33:02.115Z,99749.75
2023-03-27T00:35:30.487Z,99746.34
2023-03-27T00:37:59.010Z,99746.91
2023-03-27T00:40:27.273Z,99737.97
2023-03-27T00:42:57.788Z,99739.59
2023-03-27T00:45:30.250Z,99741.19
2023-03-27T00:48:04.920Z,99745.59
2023-03-27T00:50:38.101Z,99745.44
2023-03-27T00:53:14.016Z,99742.22
2023-03-27T00:55:46.127Z,99740.81
2023-03-27T00:58:22.515Z,99750.50
2023-03-27T01:00:54.244Z,99745.22
2023-03-27T01:03:31.258Z,99747.03
2023-03-27T01:06:02.258Z,99748.03
2023-03-27T01:08:34.024Z,99747.88
2023-03-27T01:11:01.904Z,99753.03
2023-03-27T01:13:51.241Z,99759.72
2023-03-27T01:16:36.017Z,99770.16
2023-03-27T01:19:24.928Z,99769.59
2023-03-27T01:22:12.174Z,99775.25
2023-03-27T01:25:09.083Z,99770.81
2023-03-27T01:28:15.187Z,99771.19
2023-03-27T01:31:05.839Z,99779.00
2023-03-27T01:33:51.889Z,99778.81
2023-03-27T01:36:44.280Z,99776.09
2023-03-27T01:39:34.568Z,99780.22
2023-03-27T01:42:34.792Z,99783.81
2023-03-27T01:45:05.613Z,99780.53
2023-03-27T01:47:39.126Z,99776.00
2023-03-27T01:50:09.550Z,99777.31
2023-03-27T01:52:42.265Z,99777.41
2023-03-27T01:55:19.269Z,99776.63
2023-03-27T01:58:00.695Z,99780.22
2023-03-27T02:00:52.452Z,99776.84
2023-03-27T02:03:36.000Z,99787.16
2023-03-27T02:06:11.571Z,99787.00
2023-03-27T02:08:50.244Z,99787.28
2023-03-27T02:11:24.129Z,99778.31
2023-03-27T02:14:00.547Z,99779.66
2023-03-27T02:16:34.607Z,99774.56
2023-03-27T02:19:14.165Z,99766.09
2023-03-27T02:21:42.490Z,99768.84
2023-03-27T02:24:10.046Z,99774.94
2023-03-27T02:26:39.686Z,99771.09
2023-03-27T02:29:10.300Z,99782.63
2023-03-27T02:32:13.103Z,99775.50
2023-03-27T02:35:04.068Z,99784.91
2023-03-27T02:37:59.325Z,99780.09
2023-03-27T02:41:07.359Z,99784.63
2023-03-27T02:44:12.547Z,99775.44
2023-03-27T02:47:11.844Z,99783.94
2023-03-27T02:49:51.556Z,99791.66
2023-03-27T02:52:32.662Z,99793.56
2023-03-27T02:55:06.955Z,99785.13
2023-03-27T02:57:51.614Z,99794.06
2023-03-27T03:00:49.144Z,99798.56
2023-03-27T03:04:01.762Z,99795.94
2023-03-27T03:06:54.269Z,99799.41
2023-03-27T03:09:22.757Z,99793.41
2023-03-27T03:11:52.879Z,99800.97
2023-03-27T03:14:41.111Z,99795.69
2023-03-27T03:17:09.551Z,99799.28
2023-03-27T03:19:38.258Z,99793.25
2023-03-27T03:22:06.653Z,99781.88
2023-03-27T03:24:35.766Z,99782.72
2023-03-27T03:27:04.640Z,99781.19
2023-03-27T03:29:40.201Z,99783.28
2023-03-27T03:32:27.511Z,99789.78
2023-03-27T03:34:57.105Z,99785.47
2023-03-27T03:37:28.847Z,99781.75
2023-03-27T03:39:58.824Z,99801.41
2023-03-27T03:42:26.659Z,99805.09
2023-03-27T03:44:55.841Z,99807.03
2023-03-27T03:47:23.884Z,99805.25
2023-03-27T03:49:51.535Z,99817.84
2023-03-27T03:52:19.480Z,99822.41
2023-03-27T03:54:47.086Z,99827.59
2023-03-27T03:57:18.635Z,99828.53
2023-03-27T04:00:01.127Z,99821.97
2023-03-27T04:02:57.694Z,99828.09
2023-03-27T04:05:26.154Z,99833.34
2023-03-27T04:07:59.453Z,99829.47
2023-03-27T04:10:41.709Z,99832.28
2023-03-27T04:13:25.745Z,99843.38
2023-03-27T04:16:01.889Z,99844.31
2023-03-27T04:18:39.413Z,99854.34
2023-03-27T04:21:14.899Z,99847.94
2023-03-27T04:23:45.034Z,99851.94
2023-03-27T04:26:16.152Z,99859.72
2023-03-27T04:29:10.482Z,99862.09
2023-03-27T04:32:01.141Z,99874.06
2023-03-27T04:34:40.829Z,99871.94
2023-03-27T04:37:35.126Z,99878.16
2023-03-27T04:40:16.085Z,99880.38
2023-03-27T04:42:45.120Z,99884.09
2023-03-27T04:45:17.360Z,99884.94
2023-03-27T04:47:49.225Z,99885.28
2023-03-27T04:50:17.900Z,99890.63
2023-03-27T04:52:49.827Z,99891.00
2023-03-27T04:55:19.834Z,99896.47
2023-03-27T04:57:50.194Z,99887.75
2023-03-27T05:00:19.137Z,99896.75
2023-03-27T05:02:47.916Z,99900.69
2023-03-27T05:05:21.194Z,99900.00
2023-03-27T05:07:52.760Z,99903.91
2023-03-27T05:10:24.663Z,99911.88
2023-03-27T05:12:55.792Z,99903.53
2023-03-27T05:15:24.775Z,99907.44
2023-03-27T05:17:54.599Z,99907.28
2023-03-27T05:20:30.960Z,99911.16
2023-03-27T05:23:04.625Z,99908.63
2023-03-27T05:25:33.553Z,99907.03
2023-03-27T05:28:06.301Z,99907.22
2023-03-27T05:30:37.030Z,99900.34
2023-03-27T05:33:23.503Z,99904.69
2023-03-27T05:35:53.462Z,99900.94
2023-03-27T05:38:22.843Z,99901.34
2023-03-27T05:41:25.982Z,99901.66
2023-03-27T05:43:57.180Z,99908.81
2023-03-27T05:46:27.933Z,99907.50
2023-03-27T05:49:04.535Z,99909.38
2023-03-27T05:51:32.803Z,99915.16
2023-03-27T05:54:00.705Z,99919.03
2023-03-27T05:56:39.360Z,99925.63
2023-03-27T05:59:07.053Z,99933.81
2023-03-27T06:01:37.298Z,99934.47
2023-03-27T06:04:06.150Z,99944.09
2023-03-27T06:07:12.773Z,99939.19
2023-03-27T06:09:41.762Z,99940.16
2023-03-27T06:12:30.076Z,99939.94
2023-03-27T06:15:07.639Z,99934.19
2023-03-27T06:17:41.216Z,99937.22
2023-03-27T06:20:16.749Z,99937.88
2023-03-27T06:22:55.767Z,99942.69
2023-03-27T06:25:33.219Z,99942.22
2023-03-27T06:28:02.696Z,99932.88
2023-03-27T06:30:33.123Z,99935.34
2023-03-27T06:33:40.902Z,99945.41
2023-03-27T06:36:18.454Z,99947.84
2023-03-27T06:38:52.063Z,99950.94
2023-03-27T06:41:20.323Z,99953.53
2023-03-27T06:44:06.644Z,99958.88
2023-03-27T06:46:54.939Z,99952.94
2023-03-27T06:49:54.670Z,99958.09
2023-03-27T06:52:24.936Z,99953.97
2023-03-27T06:54:56.836Z,99950.41
2023-03-27T06:57:27.985Z,99952.75
2023-03-27T07:00:01.666Z,99953.50
2023-03-27T07:03:01.523Z,99949.38
2023-03-27T07:06:06.457Z,99953.97
2023-03-27T07:08:57.520Z,99956.16
2023-03-27T07:11:25.708Z,99958.41
2023-03-27T07:13:59.763Z,99958.69
2023-03-27T07:16:29.287Z,99963.13
2023-03-27T07:19:01.988Z,99964.59
2023-03-27T07:21:31.765Z,99960.22
2023-03-27T07:24:00.333Z,99955.63
2023-03-27T07:26:33.831Z,99955.03
2023-03-27T07:29:14.305Z,99954.19
2023-03-27T07:31:56.555Z,99947.00
2023-03-27T07:34:35.117Z,99945.66
2023-03-27T07:37:08.732Z,99937.75
2023-03-27T07:39:41.351Z,99939.19
2023-03-27T07:42:09.352Z,99934.75
2023-03-27T07:45:04.447Z,99944.19
2023-03-27T07:47:33.540Z,99938.31
2023-03-27T07:50:02.711Z,99941.38
2023-03-27T07:52:30.612Z,99941.22
2023-03-27T07:55:01.807Z,99941.44
2023-03-27T07:58:00.931Z,99929.81
2023-03-27T08:00:32.649Z,99935.44
2023-03-27T08:03:11.756Z,99941.06
2023-03-27T08:05:45.596Z,99939.69
2023-03-27T08:08:16.194Z,99950.25
2023-03-27T08:10:55.557Z,99946.25
2023-03-27T08:13:24.695Z,99946.34
2023-03-27T08:15:53.014Z,99948.88
2023-03-27T08:18:27.184Z,99940.97
2023-03-27T08:20:58.556Z,99943.16
2023-03-27T08:23:27.835Z,99942.66
2023-03-27T08:26:16.116Z,99936.63
2023-03-27T08:28:56.275Z,99932.00
2023-03-27T08:31:29.346Z,99933.47
2023-03-27T08:34:00.409Z,99932.81
2023-03-27T08:36:38.411Z,99932.09
2023-03-27T08:39:08.265Z,99928.91
2023-03-27T08:42:03.071Z,99936.84
2023-03-27T08:44:39.122Z,99932.44
2023-03-27T08:47:36.932Z,99932.31
2023-03-27T08:50:52.998Z,99932.72
2023-03-27T08:53:42.592Z,99932.66
2023-03-27T08:56:14.868Z,99933.28
2023-03-27T08:58:44.894Z,99932.69
2023-03-27T09:01:35.521Z,99928.25
2023-03-27T09:04:23.344Z,99927.16
2023-03-27T09:07:22.997Z,99927.72
2023-03-27T09:10:17.535Z,99928.34
2023-03-27T09:12:59.028Z,99923.50
2023-03-27T09:15:37.002Z,99923.72
2023-03-27T09:18:07.159Z,99919.63
2023-03-27T09:20:41.082Z,99929.91
2023-03-27T09:23:13.834Z,99928.69
2023-03-27T09:26:18.503Z,99924.03
2023-03-27T09:29:07.298Z,99917.06
2023-03-27T09:31:48.387Z,99929.22
2023-03-27T09:34:23.597Z,99920.16
2023-03-27T09:36:51.578Z,99922.75
2023-03-27T09:39:23.277Z,99925.13
2023-03-27T09:42:09.261Z,99925.69
2023-03-27T09:44:42.553Z,99928.69
2023-03-27T09:47:17.861Z,99933.25
2023-03-27T09:49:53.069Z,99927.13
2023-03-27T09:52:39.655Z,99930.31
2023-03-27T09:55:31.565Z,99928.97
2023-03-27T09:58:20.695Z,99928.97
2023-03-27T10:00:49.184Z,99930.53
2023-03-27T10:03:20.959Z,99940.34
2023-03-27T10:06:13.925Z,99931.53
2023-03-27T10:08:57.678Z,99926.69
2023-03-27T10:11:34.561Z,99927.69
2023-03-27T10:14:26.288Z,99928.22
2023-03-27T10:16:59.425Z,99923.28
2023-03-27T10:19:30.958Z,99924.97
2023-03-27T10:22:06.713Z,99925.44
2023-03-27T10:24:46.196Z,99924.47
2023-03-27T10:27:46.704Z,99930.94
2023-03-27T10:30:40.983Z,99929.25
2023-03-27T10:33:37.632Z,99924.19
2023-03-27T10:36:24.371Z,99918.16
2023-03-27T10:39:02.185Z,99921.09
2023-03-27T10:41:46.977Z,99921.91
2023-03-27T10:44:20.465Z,99924.81
2023-03-27T10:46:55.162Z,99917.31
2023-03-27T10:49:44.198Z,99924.19
2023-03-27T10:52:37.027Z,99923.22
2023-03-27T10:55:47.817Z,99921.28
2023-03-27T10:58:31.285Z,99915.75
2023-03-27T11:01:21.084Z,99917.44
2023-03-27T11:04:15.362Z,99920.44
2023-03-27T11:07:00.204Z,99923.09
2023-03-27T11:09:37.140Z,99918.16
2023-03-27T11:12:14.418Z,99915.88
2023-03-27T11:15:15.512Z,99920.56
2023-03-27T11:18:12.270Z,99917.31
2023-03-27T11:21:14.328Z,99917.31
2023-03-27T11:23:56.190Z,99915.38
2023-03-27T11:26:59.968Z,99918.53
2023-03-27T11:29:45.699Z,99916.72
2023-03-27T11:32:29.283Z,99919.84
2023-03-27T11:35:05.825Z,99918.03
2023-03-27T11:37:52.440Z,99921.66
2023-03-27T11:40:35.041Z,99928.91
2023-03-27T11:43:03.434Z,99923.22
2023-03-27T11:45:50.212Z,99925.25
2023-03-27T11:48:42.800Z,99920.31
2023-03-27T11:51:57.684Z,99932.13
2023-03-27T11:54:43.126Z,99921.84
2023-03-27T11:57:23.984Z,99924.50
2023-03-27T12:00:16.368Z,99918.22
2023-03-27T12:02:57.624Z,99931.50
2023-03-27T12:05:53.142Z,99931.97
2023-03-27T12:08:53.188Z,99934.00
2023-03-27T12:11:22.947Z,99941.00
2023-03-27T12:14:02.394Z,99932.63
2023-03-27T12:17:01.710Z,99937.19
2023-03-27T12:20:19.053Z,99938.09
2023-03-27T12:23:03.472Z,99937.38
2023-03-27T12:25:45.337Z,99935.03
2023-03-27T12:28:50.497Z,99936.91
2023-03-27T12:31:32.830Z,99939.16
2023-03-27T12:34:30.965Z,99947.06
2023-03-27T12:37:01.194Z,99939.59
2023-03-27T12:39:28.993Z,99947.47
2023-03-27T12:42:14.093Z,99944.66
2023-03-27T12:45:22.517Z,99937.38
2023-03-27T12:48:05.428Z,99941.13
2023-03-27T12:50:55.617Z,99951.94
2023-03-27T12:53:26.870Z,99949.97
2023-03-27T12:56:29.557Z,99941.94
2023-03-27T12:58:57.767Z,99945.75
2023-03-27T13:01:51.696Z,99938.31
2023-03-27T13:04:41.510Z,99941.59
2023-03-27T13:07:33.678Z,99929.78
2023-03-27T13:10:26.723Z,99934.53
2023-03-27T13:13:44.851Z,99943.00
2023-03-27T13:16:15.811Z,99939.16
2023-03-27T13:19:23.060Z,99938.47
2023-03-27T13:22:00.109Z,99944.56
2023-03-27T13:24:52.527Z,99932.38
2023-03-27T13:27:44.059Z,99934.72
2023-03-27T13:30:45.582Z,99933.09
2023-03-27T13:33:35.866Z,99932.03
2023-03-27T13:36:11.640Z,99924.13
2023-03-27T13:38:52.870Z,99926.09
2023-03-27T13:41:46.921Z,99939.66
2023-03-27T13:44:26.802Z,99932.34
2023-03-27T13:47:09.047Z,99935.03
2023-03-27T13:50:05.261Z,99927.56
2023-03-27T13:52:33.566Z,99921.53
2023-03-27T13:55:28.658Z,99930.94
2023-03-27T13:58:45.597Z,99924.00
2023-03-27T14:01:37.293Z,99917.72
2023-03-27T14:04:33.403Z,99914.63
2023-03-27T14:07:10.760Z,99928.56
2023-03-27T14:10:10.044Z,99926.31
2023-03-27T14:13:03.462Z,99928.78
2023-03-27T14:16:23.853Z,99936.59
2023-03-27T14:19:19.804Z,99941.72
2023-03-27T14:21:50.943Z,99936.31
2023-03-27T14:24:44.476Z,99936.25
2023-03-27T14:27:48.905Z,99935.72
2023-03-27T14:30:32.699Z,99922.16
2023-03-27T14:33:22.982Z,99926.09
2023-03-27T14:36:02.561Z,99924.13
2023-03-27T14:38:37.252Z,99927.00
2023-03-27T14:41:19.163Z,99922.06
2023-03-27T14:43:53.889Z,99922.31
2023-03-27T14:46:24.575Z,99922.44
2023-03-27T14:48:58.154Z,99917.50
2023-03-27T14:51:42.063Z,99923.94
2023-03-27T14:54:28.754Z,99923.22
2023-03-27T14:57:09.203Z,99921.31
2023-03-27T14:59:45.333Z,99917.22
2023-03-27T15:02:23.815Z,99911.72
2023-03-27T15:05:00.108Z,99919.16
2023-03-27T15:07:34.774Z,99911.00
2023-03-27T15:10:37.284Z,99917.97
2023-03-27T15:13:10.697Z,99921.56
2023-03-27T15:15:47.034Z,99929.00
2023-03-27T15:18:28.333Z,99918.63
2023-03-27T15:21:00.673Z,99926.66
2023-03-27T15:23:33.688Z,99925.22
2023-03-27T15:26:09.737Z,99927.44
2023-03-27T15:29:01.844Z,99934.53
2023-03-27T15:31:33.109Z,99933.50
2023-03-27T15:34:37.522Z,99937.06
2023-03-27T15:37:11.893Z,99931.66
2023-03-27T15:40:13.682Z,99937.25
2023-03-27T15:42:52.133Z,99941.84
2023-03-27T15:45:34.891Z,99946.19
2023-03-27T15:48:05.739Z,99942.47
2023-03-27T15:50:34.144Z,99935.84
2023-03-27T15:53:01.873Z,99937.16
2023-03-27T15:55:31.557Z,99942.13
2023-03-27T15:58:27.264Z,99933.19
2023-03-27T16:01:01.394Z,99941.66
2023-03-27T16:03:34.680Z,99933.22
2023-03-27T16:06:04.344Z,99933.59
2023-03-27T16:08:38.081Z,99942.19
2023-03-27T16:11:06.471Z,99941.47
2023-03-27T16:13:37.306Z,99947.00
2023-03-27T16:16:20.197Z,99952.22
2023-03-27T16:18:51.579Z,99952.56
2023-03-27T16:21:26.340Z,99948.22
2023-03-27T16:23:54.034Z,99957.88
2023-03-27T16:26:41.364Z,99959.56
2023-03-27T16:29:10.617Z,99952.69
2023-03-27T16:31:38.158Z,99958.59
2023-03-27T16:34:22.480Z,99960.78
2023-03-27T16:36:51.608Z,99961.13
2023-03-27T16:39:24.356Z,99960.78
2023-03-27T16:41:52.818Z,99956.56
2023-03-27T16:44:22.221Z,99958.72
2023-03-27T16:46:49.782Z,99963.19
2023-03-27T16:49:17.289Z,99969.81
2023-03-27T16:51:44.809Z,99964.75
2023-03-27T16:54:12.704Z,99963.53
2023-03-27T16:56:44.729Z,99967.38
2023-03-27T16:59:12.574Z,99973.53
2023-03-27T17:01:40.344Z,99972.06
2023-03-27T17:04:08.027Z,99983.63
2023-03-27T17:06:38.286Z,99976.09
2023-03-27T17:09:08.108Z,99978.16
2023-03-27T17:11:36.547Z,99975.38
2023-03-27T17:14:04.300Z,99984.53
2023-03-27T17:16:32.199Z,99989.13
2023-03-27T17:19:00.311Z,99985.97
2023-03-27T17:21:28.031Z,99984.50
2023-03-27T17:23:55.753Z,99983.56
2023-03-27T17:26:26.845Z,99986.22
2023-03-27T17:28:54.426Z,99982.84
2023-03-27T17:31:22.028Z,99981.47
2023-03-27T17:33:50.183Z,99981.81
2023-03-27T17:36:29.764Z,99984.84
2023-03-27T17:39:07.873Z,99981.78
2023-03-27T17:41:35.545Z,99982.00
2023-03-27T17:44:07.422Z,99987.53
2023-03-27T17:46:36.451Z,99977.50
2023-03-27T17:49:04.018Z,99981.34
2023-03-27T17:51:31.539Z,99976.16
2023-03-27T17:54:06.025Z,99983.72
2023-03-27T17:56:34.819Z,99970.34
2023-03-27T17:59:02.595Z,99978.16
2023-03-27T18:01:32.659Z,99975.50
2023-03-27T18:04:00.637Z,99971.19
2023-03-27T18:06:28.363Z,99968.53
2023-03-27T18:08:56.081Z,99967.03
2023-03-27T18:11:23.740Z,99973.94
2023-03-27T18:13:53.229Z,99969.69
2023-03-27T18:16:22.190Z,99967.41
2023-03-27T18:18:52.380Z,99967.84
2023-03-27T18:21:19.972Z,99966.59
2023-03-27T18:23:47.528Z,99969.47
2023-03-27T18:26:16.009Z,99969.47
2023-03-27T18:28:46.997Z,99974.28
2023-03-27T18:31:15.921Z,99964.84
2023-03-27T18:33:43.560Z,99969.41
2023-03-27T18:36:12.129Z,99968.22
2023-03-27T18:38:41.925Z,99980.63
2023-03-27T18:41:11.340Z,99973.22
2023-03-27T18:43:48.062Z,99970.81
2023-03-27T18:46:17.344Z,99968.78
2023-03-27T18:48:49.256Z,99965.84
2023-03-27T18:51:20.597Z,99960.56
2023-03-27T18:53:50.459Z,99958.75
2023-03-27T18:56:18.746Z,99957.19
2023-03-27T18:58:47.320Z,99947.03
2023-03-27T19:01:15.050Z,99958.56
2023-03-27T19:03:43.522Z,99962.91
2023-03-27T19:06:12.052Z,99958.56
2023-03-27T19:08:42.116Z,99960.53
2023-03-27T19:11:13.146Z,99960.53
2023-03-27T19:14:15.943Z,99961.84
2023-03-27T19:17:02.383Z,99959.63
2023-03-27T19:19:32.029Z,99962.72
2023-03-27T19:22:18.445Z,99955.50
2023-03-27T19:24:56.576Z,99962.06
2023-03-27T19:27:24.963Z,99956.16
2023-03-27T19:29:53.905Z,99962.59
2023-03-27T19:32:22.079Z,99965.47
2023-03-27T19:34:49.613Z,99962.06
2023-03-27T19:37:18.732Z,99962.06
2023-03-27T19:39:46.327Z,99963.00
2023-03-27T19:42:14.309Z,99950.75
2023-03-27T19:44:43.051Z,99949.47
2023-03-27T19:47:11.075Z,99948.81
2023-03-27T19:49:40.095Z,99947.03
2023-03-27T19:52:17.116Z,99943.75
2023-03-27T19:54:44.705Z,99934.88
2023-03-27T19:57:12.418Z,99932.44
2023-03-27T19:59:40.301Z,99935.94
2023-03-27T20:02:07.896Z,99925.47
2023-03-27T20:04:35.640Z,99926.63
2023-03-27T20:07:03.243Z,99921.22
2023-03-27T20:09:31.473Z,99921.63
2023-03-27T20:11:59.013Z,99911.59
2023-03-27T20:14:30.556Z,99909.91
2023-03-27T20:16:59.794Z,99904.84
2023-03-27T20:19:30.736Z,99904.91
2023-03-27T20:22:01.004Z,99907.66
2023-03-27T20:24:29.120Z,99907.38
2023-03-27T20:27:00.030Z,99920.16
2023-03-27T20:29:28.900Z,99911.06
2023-03-27T20:31:56.567Z,99905.25
2023-03-27T20:34:24.360Z,99901.75
2023-03-27T20:36:53.265Z,99898.16
2023-03-27T20:39:50.003Z,99895.41
2023-03-27T20:42:23.204Z,99896.03
2023-03-27T20:44:58.269Z,99897.31
2023-03-27T20:47:26.087Z,99895.91
2023-03-27T20:49:53.590Z,99897.06
2023-03-27T20:52:22.953Z,99891.78
2023-03-27T20:54:50.850Z,99892.63
2023-03-27T20:57:21.724Z,99887.66
2023-03-27T20:59:49.615Z,99878.91
2023-03-27T21:02:21.706Z,99889.03
2023-03-27T21:04:49.894Z,99878.88
2023-03-27T21:07:17.498Z,99889.00
2023-03-27T21:09:46.652Z,99890.06
2023-03-27T21:12:14.314Z,99884.78
2023-03-27T21:14:41.831Z,99886.38
2023-03-27T21:17:11.887Z,99875.13
2023-03-27T21:19:39.622Z,99887.72
2023-03-27T21:22:15.078Z,99886.66
2023-03-27T21:24:44.108Z,99888.91
2023-03-27T21:27:11.627Z,99891.53
2023-03-27T21:29:45.985Z,99887.88
2023-03-27T21:32:14.701Z,99887.22
2023-03-27T21:34:42.209Z,99882.03
2023-03-27T21:37:09.810Z,99881.19
2023-03-27T21:39:37.699Z,99893.63
2023-03-27T21:42:10.088Z,99890.81
2023-03-27T21:44:37.852Z,99889.00
2023-03-27T21:47:05.633Z,99887.75
2023-03-27T21:49:33.731Z,99885.31
2023-03-27T21:52:01.713Z,99883.44
2023-03-27T21:54:29.440Z,99872.94
2023-03-27T21:56:57.180Z,99865.75
2023-03-27T21:59:25.227Z,99870.25
2023-03-27T22:01:56.187Z,99869.31
2023-03-27T22:04:23.865Z,99871.84
2023-03-27T22:06:51.506Z,99861.78
2023-03-27T22:09:20.396Z,99861.22
2023-03-27T22:11:48.376Z,99864.72
2023-03-27T22:14:20.629Z,99869.56
2023-03-27T22:16:48.731Z,99866.56
2023-03-27T22:19:16.617Z,99864.41
2023-03-27T22:21:51.821Z,99864.41
2023-03-27T22:24:19.475Z,99863.97
2023-03-27T22:26:47.032Z,99863.97
2023-03-27T22:29:14.483Z,99858.13
2023-03-27T22:31:42.022Z,99861.94
2023-03-27T22:34:09.704Z,99859.47
2023-03-27T22:36:38.965Z,99862.97
2023-03-27T22:39:06.894Z,99859.03
2023-03-27T22:41:36.785Z,99857.63
2023-03-27T22:44:04.426Z,99863.94
2023-03-27T22:46:31.972Z,99848.31
2023-03-27T22:49:01.783Z,99844.84
2023-03-27T22:51:31.082Z,99852.09
2023-03-27T22:54:04.703Z,99845.75
2023-03-27T22:56:32.747Z,99850.88
2023-03-27T22:59:00.358Z,99843.97
2023-03-27T23:01:28.015Z,99847.38
2023-03-27T23:03:56.068Z,99838.69
2023-03-27T23:06:24.079Z,99837.84
2023-03-27T23:08:52.662Z,99838.34
2023-03-27T23:11:20.715Z,99843.25
2023-03-27T23:13:49.694Z,99850.22
2023-03-27T23:16:18.807Z,99839.78
2023-03-27T23:18:46.856Z,99844.00
2023-03-27T23:21:17.756Z,99846.75
2023-03-27T23:23:46.220Z,99843.25
2023-03-27T23:26:16.270Z,99842.97
2023-03-27T23:28:44.766Z,99833.56
2023-03-27T23:31:15.016Z,99812.75
2023-03-27T23:33:46.341Z,99827.72
2023-03-27T23:36:17.387Z,99822.63
2023-03-27T23:38:46.350Z,99819.16
2023-03-27T23:41:15.832Z,99819.94
2023-03-27T23:43:43.354Z,99817.31
2023-03-27T23:46:11.679Z,99817.53
2023-03-27T23:48:41.981Z,99812.25
2023-03-27T23:51:10.503Z,99802.44
2023-03-27T23:53:38.753Z,99809.97
2023-03-27T23:56:06.574Z,99804.97
2023-03-27T23:58:34.608Z,99805.06
